SARI METAR and TAF weather

Enter ICAO airport designator
Station Type Date Time Source
SARI METAR 2020/12/05 05:00 UTC NOAA

SARI 050500Z 05003KT 7000 SCT005 BKN020 OVC070 21/21 Q1014


Station Type Date Time Source
SARI Decoded METAR 2020/12/05 05:00 UTC NOAA

Iguazu Aerodrome, Argentina (SARI) 25-44S 054-28W 270M
Dec 05, 2020 - 12:00 AM EST / 2020.12.05 0500 UTC
Wind: from the NE (050 degrees) at 3 MPH (3 KT):0
Visibility: 4 mile(s):0
Sky conditions: overcast
Temperature: 69 F (21 C)
Dew Point: 69 F (21 C)
Relative Humidity: 100%
Pressure (altimeter): 29.94 in. Hg (1014 hPa)
ob: SARI 050500Z 05003KT 7000 SCT005 BKN020 OVC070 21/21 Q1014
cycle: 5

Station Type Date Time Source
SARI TAF 2020/12/05 06:21 UTC NOAA

TAF SARI 050500Z 0506/0606 18005KT 7000 -RA SCT005 BKN020 OVC070 TX26/0518Z TN19/0509Z PROB30
TEMPO 0507/0509 6000 TSRA BKN010 FEW050CB PROB30 0510/0513 2000 BR BKN008
BECMG 0513/0515 9999 BKN030

Example: see airport list